sensor_id;sensor_type;location;lat;lon;timestamp;P1;durP1;ratioP1;P2;durP2;ratioP2
68614;SDS011;55593;51.994;5.882;2023-12-04T00:00:04;39.15;;;21.75;;
68614;SDS011;55593;51.994;5.882;2023-12-04T00:05:34;38.33;;;21.50;;
68614;SDS011;55593;51.994;5.882;2023-12-04T00:08:33;38.03;;;22.65;;
68614;SDS011;55593;51.994;5.882;2023-12-04T00:14:38;41.88;;;20.98;;
68614;SDS011;55593;51.994;5.882;2023-12-04T00:17:51;38.55;;;21.25;;
68614;SDS011;55593;51.994;5.882;2023-12-04T00:20:27;39.15;;;21.63;;
68614;SDS011;55593;51.994;5.882;2023-12-04T00:23:19;40.47;;;21.27;;
68614;SDS011;55593;51.994;5.882;2023-12-04T00:29:08;38.47;;;20.02;;
68614;SDS011;55593;51.994;5.882;2023-12-04T00:32:13;42.15;;;21.88;;
68614;SDS011;55593;51.994;5.882;2023-12-04T00:35:08;42.92;;;21.70;;
68614;SDS011;55593;51.994;5.882;2023-12-04T00:41:17;36.75;;;19.58;;
68614;SDS011;55593;51.994;5.882;2023-12-04T00:47:58;44.55;;;23.20;;
68614;SDS011;55593;51.994;5.882;2023-12-04T00:50:40;35.53;;;20.70;;
68614;SDS011;55593;51.994;5.882;2023-12-04T00:56:47;38.40;;;21.00;;
68614;SDS011;55593;51.994;5.882;2023-12-04T00:59:59;34.38;;;19.48;;
68614;SDS011;55593;51.994;5.882;2023-12-04T01:03:18;35.67;;;19.42;;
68614;SDS011;55593;51.994;5.882;2023-12-04T01:13:45;36.75;;;19.50;;
68614;SDS011;55593;51.994;5.882;2023-12-04T01:16:23;34.53;;;20.60;;
68614;SDS011;55593;51.994;5.882;2023-12-04T01:18:59;34.00;;;18.50;;
68614;SDS011;55593;51.994;5.882;2023-12-04T01:21:40;37.25;;;19.52;;
68614;SDS011;55593;51.994;5.882;2023-12-04T01:24:33;31.13;;;18.80;;
68614;SDS011;55593;51.994;5.882;2023-12-04T01:27:14;37.10;;;19.33;;
68614;SDS011;55593;51.994;5.882;2023-12-04T01:30:16;28.08;;;16.00;;
68614;SDS011;55593;51.994;5.882;2023-12-04T01:33:22;34.33;;;19.48;;
68614;SDS011;55593;51.994;5.882;2023-12-04T01:39:35;37.60;;;20.57;;
68614;SDS011;55593;51.994;5.882;2023-12-04T01:42:16;36.35;;;19.65;;
68614;SDS011;55593;51.994;5.882;2023-12-04T01:44:46;32.78;;;18.60;;
68614;SDS011;55593;51.994;5.882;2023-12-04T01:47:49;40.63;;;21.40;;
68614;SDS011;55593;51.994;5.882;2023-12-04T01:50:33;36.33;;;20.10;;
68614;SDS011;55593;51.994;5.882;2023-12-04T01:56:15;36.50;;;19.20;;
68614;SDS011;55593;51.994;5.882;2023-12-04T01:58:47;35.78;;;19.67;;
68614;SDS011;55593;51.994;5.882;2023-12-04T02:01:26;32.17;;;18.85;;
68614;SDS011;55593;51.994;5.882;2023-12-04T02:04:06;32.63;;;18.35;;
68614;SDS011;55593;51.994;5.882;2023-12-04T02:06:39;35.47;;;20.05;;
68614;SDS011;55593;51.994;5.882;2023-12-04T02:09:45;44.15;;;21.85;;
68614;SDS011;55593;51.994;5.882;2023-12-04T02:12:37;37.10;;;20.33;;
68614;SDS011;55593;51.994;5.882;2023-12-04T02:16:44;35.10;;;18.83;;
68614;SDS011;55593;51.994;5.882;2023-12-04T02:19:43;34.70;;;19.30;;
68614;SDS011;55593;51.994;5.882;2023-12-04T02:22:46;32.47;;;18.92;;
68614;SDS011;55593;51.994;5.882;2023-12-04T02:25:25;40.70;;;20.48;;
68614;SDS011;55593;51.994;5.882;2023-12-04T02:27:58;35.42;;;19.45;;
68614;SDS011;55593;51.994;5.882;2023-12-04T02:39:44;35.60;;;18.73;;
68614;SDS011;55593;51.994;5.882;2023-12-04T02:42:35;33.88;;;19.30;;
68614;SDS011;55593;51.994;5.882;2023-12-04T02:45:35;31.85;;;18.05;;
68614;SDS011;55593;51.994;5.882;2023-12-04T02:48:20;32.95;;;18.48;;
68614;SDS011;55593;51.994;5.882;2023-12-04T02:58:32;31.42;;;18.63;;
68614;SDS011;55593;51.994;5.882;2023-12-04T03:01:22;28.67;;;16.73;;
68614;SDS011;55593;51.994;5.882;2023-12-04T03:04:36;28.48;;;17.50;;
68614;SDS011;55593;51.994;5.882;2023-12-04T03:07:50;32.30;;;17.40;;
68614;SDS011;55593;51.994;5.882;2023-12-04T03:17:52;33.67;;;17.52;;
68614;SDS011;55593;51.994;5.882;2023-12-04T03:21:05;31.90;;;18.05;;
68614;SDS011;55593;51.994;5.882;2023-12-04T03:28:03;28.13;;;16.52;;
68614;SDS011;55593;51.994;5.882;2023-12-04T03:31:14;28.98;;;17.23;;
68614;SDS011;55593;51.994;5.882;2023-12-04T03:37:32;31.10;;;19.13;;
68614;SDS011;55593;51.994;5.882;2023-12-04T03:40:41;30.30;;;17.90;;
68614;SDS011;55593;51.994;5.882;2023-12-04T03:43:41;31.33;;;16.67;;
68614;SDS011;55593;51.994;5.882;2023-12-04T03:46:29;31.20;;;17.67;;
68614;SDS011;55593;51.994;5.882;2023-12-04T03:52:39;24.98;;;14.98;;
68614;SDS011;55593;51.994;5.882;2023-12-04T03:55:34;29.58;;;16.58;;
68614;SDS011;55593;51.994;5.882;2023-12-04T03:58:10;26.13;;;15.50;;
68614;SDS011;55593;51.994;5.882;2023-12-04T04:01:19;23.92;;;15.25;;
68614;SDS011;55593;51.994;5.882;2023-12-04T04:04:37;27.58;;;15.43;;
68614;SDS011;55593;51.994;5.882;2023-12-04T04:07:42;26.25;;;15.93;;
68614;SDS011;55593;51.994;5.882;2023-12-04T04:10:47;28.88;;;15.07;;
68614;SDS011;55593;51.994;5.882;2023-12-04T04:13:35;26.77;;;15.65;;
68614;SDS011;55593;51.994;5.882;2023-12-04T04:16:46;26.25;;;15.25;;
68614;SDS011;55593;51.994;5.882;2023-12-04T04:19:46;26.27;;;16.00;;
68614;SDS011;55593;51.994;5.882;2023-12-04T04:25:39;24.33;;;14.80;;
68614;SDS011;55593;51.994;5.882;2023-12-04T04:28:18;23.85;;;14.23;;
68614;SDS011;55593;51.994;5.882;2023-12-04T04:31:00;25.08;;;15.32;;
68614;SDS011;55593;51.994;5.882;2023-12-04T04:36:37;22.55;;;14.10;;
68614;SDS011;55593;51.994;5.882;2023-12-04T04:39:25;24.63;;;14.38;;
68614;SDS011;55593;51.994;5.882;2023-12-04T04:42:40;25.15;;;15.50;;
68614;SDS011;55593;51.994;5.882;2023-12-04T04:46:13;21.95;;;13.82;;
68614;SDS011;55593;51.994;5.882;2023-12-04T04:49:25;23.67;;;14.40;;
68614;SDS011;55593;51.994;5.882;2023-12-04T04:58:08;24.90;;;14.23;;
68614;SDS011;55593;51.994;5.882;2023-12-04T05:01:20;23.80;;;15.10;;
68614;SDS011;55593;51.994;5.882;2023-12-04T05:04:12;22.97;;;14.27;;
68614;SDS011;55593;51.994;5.882;2023-12-04T05:06:52;22.45;;;14.13;;
68614;SDS011;55593;51.994;5.882;2023-12-04T05:09:42;21.63;;;13.73;;
68614;SDS011;55593;51.994;5.882;2023-12-04T05:12:40;21.38;;;12.85;;
68614;SDS011;55593;51.994;5.882;2023-12-04T05:25:25;21.23;;;13.25;;
68614;SDS011;55593;51.994;5.882;2023-12-04T05:31:13;23.97;;;15.00;;
68614;SDS011;55593;51.994;5.882;2023-12-04T05:34:25;23.85;;;12.57;;
68614;SDS011;55593;51.994;5.882;2023-12-04T05:37:11;20.77;;;13.60;;
68614;SDS011;55593;51.994;5.882;2023-12-04T05:40:12;21.15;;;13.13;;
68614;SDS011;55593;51.994;5.882;2023-12-04T05:43:09;19.80;;;13.05;;
68614;SDS011;55593;51.994;5.882;2023-12-04T05:45:53;20.85;;;13.00;;
68614;SDS011;55593;51.994;5.882;2023-12-04T05:48:47;22.02;;;12.77;;
68614;SDS011;55593;51.994;5.882;2023-12-04T05:51:32;20.23;;;12.68;;
68614;SDS011;55593;51.994;5.882;2023-12-04T05:57:59;22.13;;;12.65;;
68614;SDS011;55593;51.994;5.882;2023-12-04T06:01:11;19.63;;;11.75;;
68614;SDS011;55593;51.994;5.882;2023-12-04T06:04:02;20.02;;;12.13;;
68614;SDS011;55593;51.994;5.882;2023-12-04T06:06:50;19.75;;;11.93;;
68614;SDS011;55593;51.994;5.882;2023-12-04T06:09:27;22.27;;;12.32;;
68614;SDS011;55593;51.994;5.882;2023-12-04T06:18:21;19.13;;;11.50;;
68614;SDS011;55593;51.994;5.882;2023-12-04T06:21:16;20.52;;;12.02;;
68614;SDS011;55593;51.994;5.882;2023-12-04T06:24:17;17.33;;;10.88;;
68614;SDS011;55593;51.994;5.882;2023-12-04T06:27:29;21.63;;;12.07;;
68614;SDS011;55593;51.994;5.882;2023-12-04T06:30:03;18.80;;;11.70;;
68614;SDS011;55593;51.994;5.882;2023-12-04T06:32:43;17.33;;;11.48;;
68614;SDS011;55593;51.994;5.882;2023-12-04T06:35:17;14.00;;;8.53;;
68614;SDS011;55593;51.994;5.882;2023-12-04T06:38:16;16.35;;;11.00;;
68614;SDS011;55593;51.994;5.882;2023-12-04T06:41:09;17.92;;;11.88;;
68614;SDS011;55593;51.994;5.882;2023-12-04T06:43:48;18.70;;;11.10;;
68614;SDS011;55593;51.994;5.882;2023-12-04T06:46:28;17.95;;;11.60;;
68614;SDS011;55593;51.994;5.882;2023-12-04T06:49:18;17.33;;;11.00;;
68614;SDS011;55593;51.994;5.882;2023-12-04T06:52:08;19.45;;;11.32;;
68614;SDS011;55593;51.994;5.882;2023-12-04T06:55:02;16.38;;;10.50;;
68614;SDS011;55593;51.994;5.882;2023-12-04T06:57:53;17.75;;;10.10;;
68614;SDS011;55593;51.994;5.882;2023-12-04T07:03:34;15.70;;;10.05;;
68614;SDS011;55593;51.994;5.882;2023-12-04T07:06:09;15.88;;;10.80;;
68614;SDS011;55593;51.994;5.882;2023-12-04T07:09:22;17.10;;;10.32;;
68614;SDS011;55593;51.994;5.882;2023-12-04T07:11:59;15.85;;;10.07;;
68614;SDS011;55593;51.994;5.882;2023-12-04T07:14:35;15.50;;;10.52;;
68614;SDS011;55593;51.994;5.882;2023-12-04T07:19:56;15.50;;;10.30;;
68614;SDS011;55593;51.994;5.882;2023-12-04T07:22:41;15.50;;;10.13;;
68614;SDS011;55593;51.994;5.882;2023-12-04T07:25:21;14.32;;;9.25;;
68614;SDS011;55593;51.994;5.882;2023-12-04T07:27:54;14.98;;;9.68;;
68614;SDS011;55593;51.994;5.882;2023-12-04T07:33:21;14.88;;;9.65;;
68614;SDS011;55593;51.994;5.882;2023-12-04T07:35:57;16.85;;;9.00;;
68614;SDS011;55593;51.994;5.882;2023-12-04T07:38:39;14.73;;;9.80;;
68614;SDS011;55593;51.994;5.882;2023-12-04T07:41:10;13.90;;;9.55;;
68614;SDS011;55593;51.994;5.882;2023-12-04T07:43:47;17.55;;;9.43;;
68614;SDS011;55593;51.994;5.882;2023-12-04T07:46:23;15.70;;;9.95;;
68614;SDS011;55593;51.994;5.882;2023-12-04T07:48:54;15.93;;;9.85;;
68614;SDS011;55593;51.994;5.882;2023-12-04T07:51:31;20.05;;;9.77;;
68614;SDS011;55593;51.994;5.882;2023-12-04T07:54:03;15.70;;;9.02;;
68614;SDS011;55593;51.994;5.882;2023-12-04T07:56:33;17.65;;;9.68;;
68614;SDS011;55593;51.994;5.882;2023-12-04T07:59:02;15.68;;;10.52;;
68614;SDS011;55593;51.994;5.882;2023-12-04T08:01:36;15.13;;;9.32;;
68614;SDS011;55593;51.994;5.882;2023-12-04T08:04:05;15.20;;;8.93;;
68614;SDS011;55593;51.994;5.882;2023-12-04T08:06:35;13.85;;;8.68;;
68614;SDS011;55593;51.994;5.882;2023-12-04T08:09:02;15.80;;;9.63;;
68614;SDS011;55593;51.994;5.882;2023-12-04T08:11:35;15.27;;;9.18;;
68614;SDS011;55593;51.994;5.882;2023-12-04T08:14:04;15.43;;;9.13;;
68614;SDS011;55593;51.994;5.882;2023-12-04T08:16:36;15.70;;;9.20;;
68614;SDS011;55593;51.994;5.882;2023-12-04T08:19:06;16.80;;;8.98;;
68614;SDS011;55593;51.994;5.882;2023-12-04T08:21:36;14.48;;;9.20;;
68614;SDS011;55593;51.994;5.882;2023-12-04T08:24:05;15.52;;;9.23;;
68614;SDS011;55593;51.994;5.882;2023-12-04T08:26:34;13.88;;;9.02;;
68614;SDS011;55593;51.994;5.882;2023-12-04T08:29:04;14.13;;;10.30;;
68614;SDS011;55593;51.994;5.882;2023-12-04T08:31:33;13.65;;;9.32;;
68614;SDS011;55593;51.994;5.882;2023-12-04T08:34:05;14.13;;;8.95;;
68614;SDS011;55593;51.994;5.882;2023-12-04T08:36:34;13.75;;;8.80;;
68614;SDS011;55593;51.994;5.882;2023-12-04T08:39:35;14.57;;;10.07;;
68614;SDS011;55593;51.994;5.882;2023-12-04T08:41:55;17.65;;;10.15;;
68614;SDS011;55593;51.994;5.882;2023-12-04T08:44:36;12.85;;;9.18;;
68614;SDS011;55593;51.994;5.882;2023-12-04T08:47:06;12.35;;;8.20;;
68614;SDS011;55593;51.994;5.882;2023-12-04T08:49:41;15.52;;;9.65;;
68614;SDS011;55593;51.994;5.882;2023-12-04T08:52:11;16.92;;;10.93;;
68614;SDS011;55593;51.994;5.882;2023-12-04T08:54:40;16.30;;;9.90;;
68614;SDS011;55593;51.994;5.882;2023-12-04T08:57:10;16.27;;;9.30;;
68614;SDS011;55593;51.994;5.882;2023-12-04T08:59:41;16.85;;;10.02;;
68614;SDS011;55593;51.994;5.882;2023-12-04T09:02:10;14.70;;;9.73;;
68614;SDS011;55593;51.994;5.882;2023-12-04T09:04:42;17.17;;;9.90;;
68614;SDS011;55593;51.994;5.882;2023-12-04T09:07:12;18.40;;;10.27;;
68614;SDS011;55593;51.994;5.882;2023-12-04T09:09:44;14.43;;;9.25;;
68614;SDS011;55593;51.994;5.882;2023-12-04T09:12:13;16.55;;;11.27;;
68614;SDS011;55593;51.994;5.882;2023-12-04T09:14:44;17.55;;;10.63;;
68614;SDS011;55593;51.994;5.882;2023-12-04T09:17:13;17.60;;;10.15;;
68614;SDS011;55593;51.994;5.882;2023-12-04T09:19:45;13.88;;;9.35;;
68614;SDS011;55593;51.994;5.882;2023-12-04T09:22:14;14.13;;;9.73;;
68614;SDS011;55593;51.994;5.882;2023-12-04T09:24:44;15.52;;;10.55;;
68614;SDS011;55593;51.994;5.882;2023-12-04T09:27:14;15.27;;;9.82;;
68614;SDS011;55593;51.994;5.882;2023-12-04T09:29:48;16.15;;;10.73;;
68614;SDS011;55593;51.994;5.882;2023-12-04T09:32:19;19.83;;;11.30;;
68614;SDS011;55593;51.994;5.882;2023-12-04T09:34:53;16.33;;;10.05;;
68614;SDS011;55593;51.994;5.882;2023-12-04T09:37:22;16.10;;;10.10;;
68614;SDS011;55593;51.994;5.882;2023-12-04T09:40:13;17.35;;;11.02;;
68614;SDS011;55593;51.994;5.882;2023-12-04T09:43:08;16.17;;;10.57;;
68614;SDS011;55593;51.994;5.882;2023-12-04T09:46:00;15.52;;;10.35;;
68614;SDS011;55593;51.994;5.882;2023-12-04T09:48:46;14.43;;;9.70;;
68614;SDS011;55593;51.994;5.882;2023-12-04T09:51:47;14.95;;;9.82;;
68614;SDS011;55593;51.994;5.882;2023-12-04T09:57:25;15.07;;;10.05;;
68614;SDS011;55593;51.994;5.882;2023-12-04T09:59:59;15.35;;;10.15;;
68614;SDS011;55593;51.994;5.882;2023-12-04T10:02:43;15.85;;;10.15;;
68614;SDS011;55593;51.994;5.882;2023-12-04T10:05:15;15.45;;;10.38;;
68614;SDS011;55593;51.994;5.882;2023-12-04T10:10:32;17.25;;;11.07;;
68614;SDS011;55593;51.994;5.882;2023-12-04T10:13:17;20.30;;;10.00;;
68614;SDS011;55593;51.994;5.882;2023-12-04T10:16:04;17.23;;;11.18;;
68614;SDS011;55593;51.994;5.882;2023-12-04T10:18:46;16.63;;;10.80;;
68614;SDS011;55593;51.994;5.882;2023-12-04T10:21:21;18.00;;;11.27;;
68614;SDS011;55593;51.994;5.882;2023-12-04T10:24:07;20.25;;;11.20;;
68614;SDS011;55593;51.994;5.882;2023-12-04T10:26:51;15.80;;;10.55;;
68614;SDS011;55593;51.994;5.882;2023-12-04T10:30:20;17.13;;;10.82;;
68614;SDS011;55593;51.994;5.882;2023-12-04T10:33:09;18.58;;;10.80;;
68614;SDS011;55593;51.994;5.882;2023-12-04T10:36:23;16.90;;;10.98;;
68614;SDS011;55593;51.994;5.882;2023-12-04T10:39:04;18.90;;;11.82;;
68614;SDS011;55593;51.994;5.882;2023-12-04T10:41:58;16.02;;;9.70;;
68614;SDS011;55593;51.994;5.882;2023-12-04T10:44:31;16.95;;;10.80;;
68614;SDS011;55593;51.994;5.882;2023-12-04T10:47:15;15.40;;;10.38;;
68614;SDS011;55593;51.994;5.882;2023-12-04T10:50:01;16.65;;;11.30;;
68614;SDS011;55593;51.994;5.882;2023-12-04T10:53:11;15.32;;;10.55;;
68614;SDS011;55593;51.994;5.882;2023-12-04T10:55:47;16.30;;;11.07;;
68614;SDS011;55593;51.994;5.882;2023-12-04T10:58:39;16.98;;;10.98;;
68614;SDS011;55593;51.994;5.882;2023-12-04T11:01:14;18.15;;;11.45;;
68614;SDS011;55593;51.994;5.882;2023-12-04T11:03:44;16.23;;;10.85;;
68614;SDS011;55593;51.994;5.882;2023-12-04T11:06:17;17.40;;;10.43;;
68614;SDS011;55593;51.994;5.882;2023-12-04T11:08:47;18.23;;;10.63;;
68614;SDS011;55593;51.994;5.882;2023-12-04T11:11:21;15.05;;;10.10;;
68614;SDS011;55593;51.994;5.882;2023-12-04T11:13:56;15.35;;;10.63;;
68614;SDS011;55593;51.994;5.882;2023-12-04T11:16:31;16.63;;;10.63;;
68614;SDS011;55593;51.994;5.882;2023-12-04T11:19:10;16.08;;;10.98;;
68614;SDS011;55593;51.994;5.882;2023-12-04T11:21:44;16.60;;;11.18;;
68614;SDS011;55593;51.994;5.882;2023-12-04T11:24:19;17.98;;;10.55;;
68614;SDS011;55593;51.994;5.882;2023-12-04T11:27:05;16.05;;;10.80;;
68614;SDS011;55593;51.994;5.882;2023-12-04T11:29:35;15.82;;;10.18;;
68614;SDS011;55593;51.994;5.882;2023-12-04T11:32:06;15.50;;;10.55;;
68614;SDS011;55593;51.994;5.882;2023-12-04T11:34:47;16.15;;;10.75;;
68614;SDS011;55593;51.994;5.882;2023-12-04T11:37:23;15.95;;;10.38;;
68614;SDS011;55593;51.994;5.882;2023-12-04T11:39:53;17.45;;;10.38;;
68614;SDS011;55593;51.994;5.882;2023-12-04T11:42:27;15.20;;;9.57;;
68614;SDS011;55593;51.994;5.882;2023-12-04T11:44:58;14.02;;;9.50;;
68614;SDS011;55593;51.994;5.882;2023-12-04T11:47:28;14.82;;;9.77;;
68614;SDS011;55593;51.994;5.882;2023-12-04T11:49:58;15.55;;;9.93;;
68614;SDS011;55593;51.994;5.882;2023-12-04T11:52:36;15.05;;;9.98;;
68614;SDS011;55593;51.994;5.882;2023-12-04T11:55:09;16.50;;;10.30;;
68614;SDS011;55593;51.994;5.882;2023-12-04T11:57:46;14.40;;;9.70;;
68614;SDS011;55593;51.994;5.882;2023-12-04T12:00:19;15.20;;;10.13;;
68614;SDS011;55593;51.994;5.882;2023-12-04T12:03:00;15.07;;;9.77;;
68614;SDS011;55593;51.994;5.882;2023-12-04T12:05:32;13.15;;;8.98;;
68614;SDS011;55593;51.994;5.882;2023-12-04T12:08:02;13.82;;;9.68;;
68614;SDS011;55593;51.994;5.882;2023-12-04T12:10:31;13.45;;;9.68;;
68614;SDS011;55593;51.994;5.882;2023-12-04T12:13:04;15.00;;;10.18;;
68614;SDS011;55593;51.994;5.882;2023-12-04T12:15:33;17.85;;;10.40;;
68614;SDS011;55593;51.994;5.882;2023-12-04T12:18:02;14.15;;;9.18;;
68614;SDS011;55593;51.994;5.882;2023-12-04T12:20:32;15.10;;;9.68;;
68614;SDS011;55593;51.994;5.882;2023-12-04T12:23:01;17.00;;;10.10;;
68614;SDS011;55593;51.994;5.882;2023-12-04T12:25:31;14.88;;;9.02;;
68614;SDS011;55593;51.994;5.882;2023-12-04T12:28:04;15.27;;;8.63;;
68614;SDS011;55593;51.994;5.882;2023-12-04T12:30:35;16.02;;;9.00;;
68614;SDS011;55593;51.994;5.882;2023-12-04T12:33:15;15.60;;;10.00;;
68614;SDS011;55593;51.994;5.882;2023-12-04T12:35:49;13.27;;;9.50;;
68614;SDS011;55593;51.994;5.882;2023-12-04T12:38:18;16.98;;;10.63;;
68614;SDS011;55593;51.994;5.882;2023-12-04T12:40:47;15.73;;;10.38;;
68614;SDS011;55593;51.994;5.882;2023-12-04T12:43:20;14.27;;;8.93;;
68614;SDS011;55593;51.994;5.882;2023-12-04T12:46:00;16.25;;;10.65;;
68614;SDS011;55593;51.994;5.882;2023-12-04T12:48:48;14.95;;;9.07;;
68614;SDS011;55593;51.994;5.882;2023-12-04T12:51:29;14.30;;;9.23;;
68614;SDS011;55593;51.994;5.882;2023-12-04T12:53:58;16.63;;;9.63;;
68614;SDS011;55593;51.994;5.882;2023-12-04T12:56:40;15.20;;;9.40;;
68614;SDS011;55593;51.994;5.882;2023-12-04T12:59:18;14.80;;;8.80;;
68614;SDS011;55593;51.994;5.882;2023-12-04T13:01:48;14.93;;;9.32;;
68614;SDS011;55593;51.994;5.882;2023-12-04T13:04:19;18.75;;;9.45;;
68614;SDS011;55593;51.994;5.882;2023-12-04T13:06:49;14.48;;;9.60;;
68614;SDS011;55593;51.994;5.882;2023-12-04T13:09:19;15.15;;;10.00;;
68614;SDS011;55593;51.994;5.882;2023-12-04T13:11:54;14.98;;;9.40;;
68614;SDS011;55593;51.994;5.882;2023-12-04T13:14:26;13.55;;;9.52;;
68614;SDS011;55593;51.994;5.882;2023-12-04T13:16:56;16.63;;;9.82;;
68614;SDS011;55593;51.994;5.882;2023-12-04T13:19:25;14.70;;;10.23;;
68614;SDS011;55593;51.994;5.882;2023-12-04T13:21:54;14.73;;;9.68;;
68614;SDS011;55593;51.994;5.882;2023-12-04T13:24:26;16.05;;;9.25;;
68614;SDS011;55593;51.994;5.882;2023-12-04T13:26:57;14.35;;;9.57;;
68614;SDS011;55593;51.994;5.882;2023-12-04T13:29:30;20.35;;;10.13;;
68614;SDS011;55593;51.994;5.882;2023-12-04T13:31:59;13.95;;;9.88;;
68614;SDS011;55593;51.994;5.882;2023-12-04T13:34:30;16.80;;;8.55;;
68614;SDS011;55593;51.994;5.882;2023-12-04T13:37:00;14.65;;;9.95;;
68614;SDS011;55593;51.994;5.882;2023-12-04T13:39:32;17.10;;;10.27;;
68614;SDS011;55593;51.994;5.882;2023-12-04T13:42:14;14.85;;;9.70;;
68614;SDS011;55593;51.994;5.882;2023-12-04T13:44:59;13.98;;;9.65;;
68614;SDS011;55593;51.994;5.882;2023-12-04T13:47:42;18.17;;;10.63;;
68614;SDS011;55593;51.994;5.882;2023-12-04T13:50:11;13.75;;;9.55;;
68614;SDS011;55593;51.994;5.882;2023-12-04T13:52:40;15.88;;;9.98;;
68614;SDS011;55593;51.994;5.882;2023-12-04T13:55:09;14.95;;;9.55;;
68614;SDS011;55593;51.994;5.882;2023-12-04T13:57:46;16.90;;;10.38;;
68614;SDS011;55593;51.994;5.882;2023-12-04T14:00:39;14.80;;;10.43;;
68614;SDS011;55593;51.994;5.882;2023-12-04T14:03:14;16.27;;;9.20;;
68614;SDS011;55593;51.994;5.882;2023-12-04T14:05:53;16.13;;;10.52;;
68614;SDS011;55593;51.994;5.882;2023-12-04T14:08:23;14.65;;;9.70;;
68614;SDS011;55593;51.994;5.882;2023-12-04T14:11:03;16.83;;;11.45;;
68614;SDS011;55593;51.994;5.882;2023-12-04T14:13:40;11.50;;;7.78;;
68614;SDS011;55593;51.994;5.882;2023-12-04T14:16:16;15.38;;;10.25;;
68614;SDS011;55593;51.994;5.882;2023-12-04T14:18:45;15.40;;;9.75;;
68614;SDS011;55593;51.994;5.882;2023-12-04T14:21:14;22.42;;;10.00;;
68614;SDS011;55593;51.994;5.882;2023-12-04T14:23:43;18.20;;;10.77;;
68614;SDS011;55593;51.994;5.882;2023-12-04T14:26:13;17.50;;;10.57;;
68614;SDS011;55593;51.994;5.882;2023-12-04T14:28:42;16.50;;;9.93;;
68614;SDS011;55593;51.994;5.882;2023-12-04T14:31:12;17.98;;;9.82;;
68614;SDS011;55593;51.994;5.882;2023-12-04T14:33:44;16.63;;;10.25;;
68614;SDS011;55593;51.994;5.882;2023-12-04T14:36:13;17.13;;;10.40;;
68614;SDS011;55593;51.994;5.882;2023-12-04T14:38:44;21.20;;;10.90;;
68614;SDS011;55593;51.994;5.882;2023-12-04T14:41:13;19.98;;;12.98;;
68614;SDS011;55593;51.994;5.882;2023-12-04T14:43:42;17.90;;;11.85;;
68614;SDS011;55593;51.994;5.882;2023-12-04T14:46:11;16.50;;;10.57;;
68614;SDS011;55593;51.994;5.882;2023-12-04T14:48:40;16.67;;;11.32;;
68614;SDS011;55593;51.994;5.882;2023-12-04T14:51:12;17.08;;;11.57;;
68614;SDS011;55593;51.994;5.882;2023-12-04T14:53:49;19.08;;;11.48;;
68614;SDS011;55593;51.994;5.882;2023-12-04T14:56:36;18.63;;;12.10;;
68614;SDS011;55593;51.994;5.882;2023-12-04T14:59:27;19.58;;;11.07;;
68614;SDS011;55593;51.994;5.882;2023-12-04T15:02:20;22.42;;;12.00;;
68614;SDS011;55593;51.994;5.882;2023-12-04T15:05:07;17.92;;;12.25;;
68614;SDS011;55593;51.994;5.882;2023-12-04T15:08:03;15.73;;;11.20;;
68614;SDS011;55593;51.994;5.882;2023-12-04T15:10:48;18.35;;;11.60;;
68614;SDS011;55593;51.994;5.882;2023-12-04T15:13:51;15.23;;;10.85;;
68614;SDS011;55593;51.994;5.882;2023-12-04T15:16:37;17.70;;;11.40;;
68614;SDS011;55593;51.994;5.882;2023-12-04T15:19:21;22.10;;;12.85;;
68614;SDS011;55593;51.994;5.882;2023-12-04T15:22:03;19.30;;;11.27;;
68614;SDS011;55593;51.994;5.882;2023-12-04T15:24:47;19.33;;;11.38;;
68614;SDS011;55593;51.994;5.882;2023-12-04T15:27:17;19.45;;;11.85;;
68614;SDS011;55593;51.994;5.882;2023-12-04T15:29:44;16.50;;;11.40;;
68614;SDS011;55593;51.994;5.882;2023-12-04T15:32:13;20.77;;;12.57;;
68614;SDS011;55593;51.994;5.882;2023-12-04T15:34:40;17.33;;;11.45;;
68614;SDS011;55593;51.994;5.882;2023-12-04T15:37:09;18.60;;;11.77;;
68614;SDS011;55593;51.994;5.882;2023-12-04T15:39:36;16.92;;;10.85;;
68614;SDS011;55593;51.994;5.882;2023-12-04T15:42:09;17.73;;;11.30;;
68614;SDS011;55593;51.994;5.882;2023-12-04T15:44:35;20.80;;;12.50;;
68614;SDS011;55593;51.994;5.882;2023-12-04T15:47:05;18.20;;;11.45;;
68614;SDS011;55593;51.994;5.882;2023-12-04T15:49:55;19.45;;;11.32;;
68614;SDS011;55593;51.994;5.882;2023-12-04T15:53:26;16.52;;;10.82;;
68614;SDS011;55593;51.994;5.882;2023-12-04T15:56:54;17.70;;;11.32;;
68614;SDS011;55593;51.994;5.882;2023-12-04T15:59:27;17.15;;;10.77;;
68614;SDS011;55593;51.994;5.882;2023-12-04T16:01:55;16.13;;;10.95;;
68614;SDS011;55593;51.994;5.882;2023-12-04T16:07:25;17.50;;;11.68;;
68614;SDS011;55593;51.994;5.882;2023-12-04T16:13:57;20.23;;;11.65;;
68614;SDS011;55593;51.994;5.882;2023-12-04T16:17:34;15.55;;;11.00;;
68614;SDS011;55593;51.994;5.882;2023-12-04T16:20:11;17.17;;;10.70;;
68614;SDS011;55593;51.994;5.882;2023-12-04T16:23:07;21.30;;;12.43;;
68614;SDS011;55593;51.994;5.882;2023-12-04T16:25:46;18.63;;;11.13;;
68614;SDS011;55593;51.994;5.882;2023-12-04T16:28:31;26.27;;;14.10;;
68614;SDS011;55593;51.994;5.882;2023-12-04T16:31:00;19.80;;;12.43;;
68614;SDS011;55593;51.994;5.882;2023-12-04T16:33:33;21.63;;;13.63;;
68614;SDS011;55593;51.994;5.882;2023-12-04T16:36:03;21.27;;;13.18;;
68614;SDS011;55593;51.994;5.882;2023-12-04T16:38:47;23.35;;;15.20;;
68614;SDS011;55593;51.994;5.882;2023-12-04T16:41:46;20.95;;;11.82;;
68614;SDS011;55593;51.994;5.882;2023-12-04T16:44:17;19.25;;;12.70;;
68614;SDS011;55593;51.994;5.882;2023-12-04T16:46:46;20.38;;;13.18;;
68614;SDS011;55593;51.994;5.882;2023-12-04T16:49:23;21.48;;;12.85;;
68614;SDS011;55593;51.994;5.882;2023-12-04T16:51:53;20.00;;;13.00;;
68614;SDS011;55593;51.994;5.882;2023-12-04T16:54:22;21.33;;;13.98;;
68614;SDS011;55593;51.994;5.882;2023-12-04T16:57:07;17.33;;;12.13;;
68614;SDS011;55593;51.994;5.882;2023-12-04T16:59:47;18.30;;;12.45;;
68614;SDS011;55593;51.994;5.882;2023-12-04T17:02:19;19.15;;;12.82;;
68614;SDS011;55593;51.994;5.882;2023-12-04T17:04:52;21.30;;;13.90;;
68614;SDS011;55593;51.994;5.882;2023-12-04T17:07:22;18.35;;;12.52;;
68614;SDS011;55593;51.994;5.882;2023-12-04T17:09:51;18.98;;;12.68;;
68614;SDS011;55593;51.994;5.882;2023-12-04T17:12:22;18.88;;;12.68;;
68614;SDS011;55593;51.994;5.882;2023-12-04T17:14:51;20.27;;;13.02;;
68614;SDS011;55593;51.994;5.882;2023-12-04T17:17:25;20.13;;;12.77;;
68614;SDS011;55593;51.994;5.882;2023-12-04T17:19:56;15.98;;;11.40;;
68614;SDS011;55593;51.994;5.882;2023-12-04T17:22:25;21.92;;;13.15;;
68614;SDS011;55593;51.994;5.882;2023-12-04T17:25:01;19.02;;;12.10;;
68614;SDS011;55593;51.994;5.882;2023-12-04T17:27:32;20.95;;;14.07;;
68614;SDS011;55593;51.994;5.882;2023-12-04T17:33:42;19.42;;;12.52;;
68614;SDS011;55593;51.994;5.882;2023-12-04T17:40:24;24.23;;;14.65;;
68614;SDS011;55593;51.994;5.882;2023-12-04T17:49:22;20.45;;;13.60;;
68614;SDS011;55593;51.994;5.882;2023-12-04T17:58:38;19.67;;;13.65;;
68614;SDS011;55593;51.994;5.882;2023-12-04T18:01:45;20.08;;;13.55;;
68614;SDS011;55593;51.994;5.882;2023-12-04T19:11:19;26.23;;;17.45;;
68614;SDS011;55593;51.994;5.882;2023-12-04T19:32:17;28.98;;;20.48;;
68614;SDS011;55593;51.994;5.882;2023-12-04T19:56:15;28.98;;;21.50;;
68614;SDS011;55593;51.994;5.882;2023-12-04T19:59:19;28.30;;;22.23;;